Time;durP1;ratioP1;P1;durP2;ratioP2;P2;SDS_P1;SDS_P2;PMS_P1;PMS_P2;Temp;Humidity;BMP_temperature;BMP_pressure;BME280_temperature;BME280_humidity;BME280_pressure;Samples;Min_cycle;Max_cycle;Signal;HPM_P1;HPM_P2
2022/06/10 00:01:58;;;;;;;;;;;;;;;;;;5081308;28;19922;-76
2022/06/10 00:04:23;;;;;;;;;;;;;;;;;;5097954;28;20293;-76
2022/06/10 00:06:49;;;;;;;;;;;;;;;;;;5116702;28;19915;-76
2022/06/10 00:09:16;;;;;;;;;;;;;;;;;;5081646;28;20231;-76
2022/06/10 00:11:42;;;;;;;;;;;;;;;;;;5081837;28;19919;-76
2022/06/10 00:14:08;;;;;;;;;;;;;;;;;;5098467;28;20419;-76
2022/06/10 00:16:35;;;;;;;;;;;;;;;;;;5098253;28;19966;-76
2022/06/10 00:19:01;;;;;;;;;;;;;;;;;;5081347;28;19920;-76
2022/06/10 00:21:27;;;;;;;;;;;;;;;;;;5081355;28;20007;-76
2022/06/10 00:23:53;;;;;;;;;;;;;;;;;;5081490;28;20339;-76
2022/06/10 00:26:19;;;;;;;;;;;;;;;;;;5098068;28;19955;-76
2022/06/10 00:28:45;;;;;;;;;;;;;;;;;;5081385;28;19963;-76
2022/06/10 00:31:12;;;;;;;;;;;;;;;;;;5098170;28;19915;-76
2022/06/10 00:33:40;;;;;;;;;;;;;;;;;;5080974;28;19916;-76
2022/06/10 00:36:10;;;;;;;;;;;;;;;;;;5080078;28;20313;-76
2022/06/10 00:38:36;;;;;;;;;;;;;;;;;;5081185;28;19919;-76
2022/06/10 00:41:04;;;;;;;;;;;;;;;;;;5115909;28;20281;-77
2022/06/10 00:43:31;;;;;;;;;;;;;;;;;;5098008;28;19920;-76
2022/06/10 00:45:57;;;;;;;;;;;;;;;;;;5080462;28;20318;-76
2022/06/10 00:48:36;;;;;;;;;;;;;;;;;;5097917;28;19915;-76
2022/06/10 00:51:08;;;;;;;;;;;;;;;;;;5097828;28;19916;-76
2022/06/10 00:53:34;;;;;;;;;;;;;;;;;;5097838;28;19915;-76
2022/06/10 00:56:05;;;;;;;;;;;;;;;;;;5115807;28;19922;-77
2022/06/10 00:58:49;;;;;;;;;;;;;;;;;;5081031;28;20002;-76
2022/06/10 01:01:15;;;;;;;;;;;;;;;;;;5115390;28;19942;-76
2022/06/10 01:03:42;;;;;;;;;;;;;;;;;;5076746;28;20453;-76
2022/06/10 01:06:08;;;;;;;;;;;;;;;;;;5077178;28;20385;-76
2022/06/10 01:08:33;;;;;;;;;;;;;;;;;;5098924;28;20004;-76
2022/06/10 01:11:13;;;;;;;;;;;;;;;;;;5097118;28;20006;-76
2022/06/10 01:13:50;;;;;;;;;;;;;;;;;;5079630;28;20369;-76
2022/06/10 01:16:18;;;;;;;;;;;;;;;;;;5114332;28;20018;-76
2022/06/10 01:19:02;;;;;;;;;;;;;;;;;;5078111;28;20011;-76
2022/06/10 01:21:49;;;;;;;;;;;;;;;;;;5078085;28;19923;-76
2022/06/10 01:24:21;;;;;;;;;;;;;;;;;;5094086;28;19926;-76
2022/06/10 01:29:50;;;;;;;;;;;;;;;;;;5095349;28;19922;-77
2022/06/10 01:32:30;;;;;;;;;;;;;;;;;;5095269;28;19916;-76
2022/06/10 01:35:04;;;;;;;;;;;;;;;;;;5078816;28;19927;-76
2022/06/10 01:37:35;;;;;;;;;;;;;;;;;;5077667;28;20297;-77
2022/06/10 01:40:14;;;;;;;;;;;;;;;;;;5077898;28;19972;-76
2022/06/10 01:42:43;;;;;;;;;;;;;;;;;;5112581;28;20564;-76
2022/06/10 01:45:41;;;;;;;;;;;;;;;;;;5077506;28;20018;-76
2022/06/10 01:48:07;;;;;;;;;;;;;;;;;;5039901;28;19959;-76
2022/06/10 01:50:44;;;;;;;;;;;;;;;;;;5078121;28;19969;-76
2022/06/10 01:53:13;;;;;;;;;;;;;;;;;;5079170;28;19916;-75
2022/06/10 01:55:47;;;;;;;;;;;;;;;;;;5079355;28;19922;-75
2022/06/10 01:58:24;;;;;;;;;;;;;;;;;;5079384;28;19915;-75
2022/06/10 02:00:53;;;;;;;;;;;;;;;;;;5106328;28;19920;-75
2022/06/10 02:03:28;;;;;;;;;;;;;;;;;;5076105;28;19935;-75
2022/06/10 02:05:57;;;;;;;;;;;;;;;;;;5075542;28;20007;-75
2022/06/10 02:08:30;;;;;;;;;;;;;;;;;;5075914;28;20007;-75
2022/06/10 02:11:04;;;;;;;;;;;;;;;;;;5075976;28;19916;-75
2022/06/10 02:13:32;;;;;;;;;;;;;;;;;;5059249;28;20003;-75
2022/06/10 02:16:00;;;;;;;;;;;;;;;;;;5075696;28;20401;-75
2022/06/10 02:18:33;;;;;;;;;;;;;;;;;;5076005;28;19916;-75
2022/06/10 02:21:02;;;;;;;;;;;;;;;;;;5075761;28;19943;-75
2022/06/10 02:23:35;;;;;;;;;;;;;;;;;;5094034;28;20396;-75
2022/06/10 02:26:03;;;;;;;;;;;;;;;;;;5092666;28;20019;-75
2022/06/10 02:28:33;;;;;;;;;;;;;;;;;;5110473;28;19959;-75
2022/06/10 02:31:11;;;;;;;;;;;;;;;;;;5079083;28;19947;-75
2022/06/10 02:33:37;;;;;;;;;;;;;;;;;;5079284;28;19983;-76
2022/06/10 02:36:09;;;;;;;;;;;;;;;;;;5095736;28;20531;-76
2022/06/10 02:38:52;;;;;;;;;;;;;;;;;;5095863;28;20270;-76
2022/06/10 02:41:35;;;;;;;;;;;;;;;;;;5078900;28;19923;-76
2022/06/10 02:44:01;;;;;;;;;;;;;;;;;;5078716;28;19920;-76
2022/06/10 02:46:30;;;;;;;;;;;;;;;;;;5079874;28;20399;-75
2022/06/10 02:49:09;;;;;;;;;;;;;;;;;;5080889;28;19938;-80
2022/06/10 02:51:37;;;;;;;;;;;;;;;;;;5084440;28;19916;-79
2022/06/10 02:54:04;;;;;;;;;;;;;;;;;;5083930;28;19939;-79
2022/06/10 02:56:30;;;;;;;;;;;;;;;;;;5118737;28;19915;-79
2022/06/10 03:02:12;;;;;;;;;;;;;;;;;;5083570;28;19924;-78
2022/06/10 03:04:58;;;;;;;;;;;;;;;;;;5092557;28;19919;-80
2022/06/10 03:07:47;;;;;;;;;;;;;;;;;;5084407;28;19920;-78
2022/06/10 03:10:31;;;;;;;;;;;;;;;;;;5084703;28;19916;-78
2022/06/10 03:13:10;;;;;;;;;;;;;;;;;;5101547;28;19916;-78
2022/06/10 03:15:51;;;;;;;;;;;;;;;;;;5101229;28;20002;-78
2022/06/10 03:18:35;;;;;;;;;;;;;;;;;;5082877;28;19916;-78
2022/06/10 03:21:20;;;;;;;;;;;;;;;;;;5084850;28;19998;-78
2022/06/10 03:23:59;;;;;;;;;;;;;;;;;;5102975;28;20377;-78
2022/06/10 03:26:32;;;;;;;;;;;;;;;;;;5121009;28;19958;-78
2022/06/10 03:29:16;;;;;;;;;;;;;;;;;;5120364;28;19984;-79
2022/06/10 03:31:51;;;;;;;;;;;;;;;;;;5085393;28;19919;-78
2022/06/10 03:34:29;;;;;;;;;;;;;;;;;;5083961;28;20007;-78
2022/06/10 03:36:58;;;;;;;;;;;;;;;;;;5085461;28;19916;-78
2022/06/10 03:39:25;;;;;;;;;;;;;;;;;;5085463;28;20403;-78
2022/06/10 03:41:59;;;;;;;;;;;;;;;;;;5085513;28;19916;-78
2022/06/10 03:44:26;;;;;;;;;;;;;;;;;;5084985;28;19942;-79
2022/06/10 03:46:56;;;;;;;;;;;;;;;;;;5085953;28;20337;-78
2022/06/10 03:49:25;;;;;;;;;;;;;;;;;;5085247;28;19919;-79
2022/06/10 03:51:51;;;;;;;;;;;;;;;;;;5084960;28;19920;-79
2022/06/10 03:54:18;;;;;;;;;;;;;;;;;;5085496;28;20262;-78
2022/06/10 03:56:44;;;;;;;;;;;;;;;;;;5084993;28;19920;-78
2022/06/10 03:59:09;;;;;;;;;;;;;;;;;;5101474;28;20391;-78
2022/06/10 04:01:35;;;;;;;;;;;;;;;;;;5101257;28;20369;-78
2022/06/10 04:04:00;;;;;;;;;;;;;;;;;;5084452;28;20010;-78
2022/06/10 04:06:26;;;;;;;;;;;;;;;;;;5081573;28;19916;-78
2022/06/10 04:08:54;;;;;;;;;;;;;;;;;;5081341;28;19920;-79
2022/06/10 04:11:20;;;;;;;;;;;;;;;;;;5081239;28;20080;-79
2022/06/10 04:13:46;;;;;;;;;;;;;;;;;;5083081;28;19916;-79
2022/06/10 04:16:11;;;;;;;;;;;;;;;;;;5083604;28;20297;-79
2022/06/10 04:18:37;;;;;;;;;;;;;;;;;;5083118;28;19923;-80
2022/06/10 04:21:05;;;;;;;;;;;;;;;;;;5082537;28;19920;-79
2022/06/10 04:23:32;;;;;;;;;;;;;;;;;;5081710;28;19920;-79
2022/06/10 04:25:57;;;;;;;;;;;;;;;;;;5064786;28;19967;-79
2022/06/10 04:28:24;;;;;;;;;;;;;;;;;;5093926;28;19974;-78
2022/06/10 04:30:51;;;;;;;;;;;;;;;;;;5097636;28;19955;-78
2022/06/10 04:33:17;;;;;;;;;;;;;;;;;;5081109;28;19937;-78
2022/06/10 04:35:43;;;;;;;;;;;;;;;;;;5098489;28;20336;-78
2022/06/10 04:38:11;;;;;;;;;;;;;;;;;;5096298;28;19916;-78
2022/06/10 04:40:37;;;;;;;;;;;;;;;;;;5062327;28;19923;-78
2022/06/10 04:43:04;;;;;;;;;;;;;;;;;;5096882;28;19920;-78
2022/06/10 04:45:33;;;;;;;;;;;;;;;;;;5083216;28;19916;-78
2022/06/10 04:47:59;;;;;;;;;;;;;;;;;;5078387;28;20349;-78
2022/06/10 04:50:26;;;;;;;;;;;;;;;;;;5078437;28;19923;-78
2022/06/10 04:52:53;;;;;;;;;;;;;;;;;;5061868;28;19957;-78
2022/06/10 04:55:19;;;;;;;;;;;;;;;;;;5062063;28;19923;-78
2022/06/10 04:57:44;;;;;;;;;;;;;;;;;;5095785;28;19955;-78
2022/06/10 05:00:13;;;;;;;;;;;;;;;;;;5061486;28;19927;-77
2022/06/10 05:02:39;;;;;;;;;;;;;;;;;;5077964;28;19923;-77
2022/06/10 05:05:05;;;;;;;;;;;;;;;;;;5061308;28;19916;-77
2022/06/10 05:07:30;;;;;;;;;;;;;;;;;;5060946;28;19969;-78
2022/06/10 05:09:56;;;;;;;;;;;;;;;;;;5092537;28;19916;-78
2022/06/10 05:12:21;;;;;;;;;;;;;;;;;;5081453;28;19966;-78
2022/06/10 05:14:47;;;;;;;;;;;;;;;;;;5081289;28;20057;-78
2022/06/10 05:17:12;;;;;;;;;;;;;;;;;;5116308;28;19919;-77
2022/06/10 05:19:38;;;;;;;;;;;;;;;;;;5081511;28;19923;-79
2022/06/10 05:22:04;;;;;;;;;;;;;;;;;;5082840;28;19922;-81
2022/06/10 05:24:29;;;;;;;;;;;;;;;;;;5087495;28;19928;-81
2022/06/10 05:26:57;;;;;;;;;;;;;;;;;;5087236;28;19916;-81
2022/06/10 05:29:23;;;;;;;;;;;;;;;;;;5092559;28;19960;-81
2022/06/10 05:31:49;;;;;;;;;;;;;;;;;;5087939;28;19945;-83
2022/06/10 05:36:58;;;;;;;;;;;;;;;;;;5091522;28;19916;-81
2022/06/10 05:39:24;;;;;;;;;;;;;;;;;;5099790;28;19983;-79
2022/06/10 05:42:06;;;;;;;;;;;;;;;;;;5067776;28;19920;-80
2022/06/10 05:44:33;;;;;;;;;;;;;;;;;;5070184;28;20305;-82
2022/06/10 05:47:00;;;;;;;;;;;;;;;;;;5062924;28;19962;-78
2022/06/10 05:49:26;;;;;;;;;;;;;;;;;;5100837;28;19923;-78
2022/06/10 05:51:52;;;;;;;;;;;;;;;;;;5087103;28;19924;-80
2022/06/10 05:54:18;;;;;;;;;;;;;;;;;;5089702;28;19920;-80
2022/06/10 05:56:46;;;;;;;;;;;;;;;;;;5088710;28;19916;-80
2022/06/10 05:59:14;;;;;;;;;;;;;;;;;;5082353;28;19915;-82
2022/06/10 06:01:39;;;;;;;;;;;;;;;;;;5082930;28;20027;-83
2022/06/10 06:04:05;;;;;;;;;;;;;;;;;;5101133;28;19963;-83
2022/06/10 06:06:30;;;;;;;;;;;;;;;;;;5084752;28;19915;-83
2022/06/10 06:08:55;;;;;;;;;;;;;;;;;;5085274;28;19916;-84
2022/06/10 06:11:21;;;;;;;;;;;;;;;;;;5083121;28;20018;-84
2022/06/10 06:13:46;;;;;;;;;;;;;;;;;;5083259;28;19927;-79
2022/06/10 06:16:15;;;;;;;;;;;;;;;;;;5067748;28;20395;-79
2022/06/10 06:18:41;;;;;;;;;;;;;;;;;;5073962;28;19923;-80
2022/06/10 06:21:07;;;;;;;;;;;;;;;;;;5064853;28;19916;-79
2022/06/10 06:23:34;;;;;;;;;;;;;;;;;;5065875;28;19920;-79
2022/06/10 06:26:00;;;;;;;;;;;;;;;;;;5065628;28;19938;-79
2022/06/10 06:28:27;;;;;;;;;;;;;;;;;;5065690;28;20369;-79
2022/06/10 06:30:52;;;;;;;;;;;;;;;;;;5079805;28;19915;-79
2022/06/10 06:33:18;;;;;;;;;;;;;;;;;;5084860;28;20321;-79
2022/06/10 06:35:49;;;;;;;;;;;;;;;;;;5085136;28;19920;-79
2022/06/10 06:38:14;;;;;;;;;;;;;;;;;;5085354;28;19942;-79
2022/06/10 06:40:41;;;;;;;;;;;;;;;;;;5102200;28;19920;-79
2022/06/10 06:43:09;;;;;;;;;;;;;;;;;;5085029;28;19924;-79
2022/06/10 06:45:35;;;;;;;;;;;;;;;;;;5074682;28;20016;-79
2022/06/10 06:48:01;;;;;;;;;;;;;;;;;;5083434;28;20410;-79
2022/06/10 06:50:28;;;;;;;;;;;;;;;;;;5083612;28;20007;-79
2022/06/10 06:52:56;;;;;;;;;;;;;;;;;;5083301;28;20541;-79
2022/06/10 06:55:21;;;;;;;;;;;;;;;;;;5083409;28;19926;-79
2022/06/10 06:57:49;;;;;;;;;;;;;;;;;;5083867;28;19916;-79
2022/06/10 07:00:15;;;;;;;;;;;;;;;;;;5078739;28;19920;-79
2022/06/10 07:02:42;;;;;;;;;;;;;;;;;;5076903;28;19921;-79
2022/06/10 07:05:08;;;;;;;;;;;;;;;;;;5092610;28;19916;-79
2022/06/10 07:07:34;;;;;;;;;;;;;;;;;;5096006;28;20007;-78
2022/06/10 07:10:00;;;;;;;;;;;;;;;;;;5080130;28;19942;-82
2022/06/10 07:12:27;;;;;;;;;;;;;;;;;;5097585;28;19935;-80
2022/06/10 07:14:52;;;;;;;;;;;;;;;;;;5086459;28;19917;-76
2022/06/10 07:17:18;;;;;;;;;;;;;;;;;;5072040;28;20405;-77
2022/06/10 07:19:44;;;;;;;;;;;;;;;;;;5058684;28;19917;-83
2022/06/10 07:22:09;;;;;;;;;;;;;;;;;;5075872;28;19920;-77
2022/06/10 07:24:35;;;;;;;;;;;;;;;;;;5073919;28;19927;-80
2022/06/10 07:27:00;;;;;;;;;;;;;;;;;;5073413;28;19916;-79
2022/06/10 07:29:28;;;;;;;;;;;;;;;;;;5073115;28;20271;-79
2022/06/10 07:31:54;;;;;;;;;;;;;;;;;;5075181;28;19923;-79
2022/06/10 07:34:20;;;;;;;;;;;;;;;;;;5078315;28;19916;-81
2022/06/10 07:36:45;;;;;;;;;;;;;;;;;;5060734;28;20370;-77
2022/06/10 07:39:14;;;;;;;;;;;;;;;;;;5077163;28;19921;-82
2022/06/10 07:42:00;;;;;;;;;;;;;;;;;;5065965;28;20014;-80
2022/06/10 07:44:25;;;;;;;;;;;;;;;;;;5079145;28;19920;-78
2022/06/10 07:46:52;;;;;;;;;;;;;;;;;;5081404;28;19939;-84
2022/06/10 07:49:18;;;;;;;;;;;;;;;;;;5075885;28;19974;-85
2022/06/10 07:51:46;;;;;;;;;;;;;;;;;;5077882;28;20324;-87
2022/06/10 07:54:12;;;;;;;;;;;;;;;;;;5077330;28;19923;-84
2022/06/10 07:56:39;;;;;;;;;;;;;;;;;;5077271;28;19917;-85
2022/06/10 07:59:05;;;;;;;;;;;;;;;;;;5081035;28;19917;-84
2022/06/10 08:01:34;;;;;;;;;;;;;;;;;;5082870;28;19937;-86
2022/06/10 08:04:01;;;;;;;;;;;;;;;;;;5083570;28;19990;-85
2022/06/10 08:06:28;;;;;;;;;;;;;;;;;;5102603;28;19920;-83
2022/06/10 08:08:55;;;;;;;;;;;;;;;;;;5088705;28;19912;-80
2022/06/10 08:11:21;;;;;;;;;;;;;;;;;;5090247;28;19916;-80
2022/06/10 08:13:47;;;;;;;;;;;;;;;;;;5089089;28;19922;-81
2022/06/10 08:16:14;;;;;;;;;;;;;;;;;;5087946;28;19961;-81
2022/06/10 08:18:39;;;;;;;;;;;;;;;;;;5089435;28;20014;-79
2022/06/10 08:23:50;;;;;;;;;;;;;;;;;;5110644;28;19927;-81
2022/06/10 08:26:16;;;;;;;;;;;;;;;;;;5096202;28;19916;-82
2022/06/10 08:28:44;;;;;;;;;;;;;;;;;;5106536;28;19920;-81
2022/06/10 08:31:10;;;;;;;;;;;;;;;;;;5101995;28;20476;-81
2022/06/10 08:33:36;;;;;;;;;;;;;;;;;;5083797;28;19923;-80
2022/06/10 08:36:03;;;;;;;;;;;;;;;;;;5100676;28;20384;-81
2022/06/10 08:38:29;;;;;;;;;;;;;;;;;;5084869;28;19922;-82
2022/06/10 08:41:00;;;;;;;;;;;;;;;;;;5084736;28;19915;-82
2022/06/10 08:43:41;;;;;;;;;;;;;;;;;;5102681;28;20365;-80
2022/06/10 08:46:13;;;;;;;;;;;;;;;;;;5086198;28;19916;-80
2022/06/10 08:48:50;;;;;;;;;;;;;;;;;;5104084;28;19964;-81
2022/06/10 08:51:35;;;;;;;;;;;;;;;;;;5085401;28;19958;-80
2022/06/10 08:54:27;;;;;;;;;;;;;;;;;;5104362;28;19975;-80
2022/06/10 08:56:54;;;;;;;;;;;;;;;;;;5047267;28;19916;-80
2022/06/10 08:59:26;;;;;;;;;;;;;;;;;;5085308;28;19916;-80
2022/06/10 09:01:52;;;;;;;;;;;;;;;;;;5102546;28;19958;-80
2022/06/10 09:04:28;;;;;;;;;;;;;;;;;;5084828;28;19923;-80
2022/06/10 09:06:57;;;;;;;;;;;;;;;;;;5102567;28;19922;-80
2022/06/10 09:09:25;;;;;;;;;;;;;;;;;;5086068;28;20006;-79
2022/06/10 09:12:12;;;;;;;;;;;;;;;;;;5102391;28;19951;-80
2022/06/10 09:14:39;;;;;;;;;;;;;;;;;;5088695;28;20318;-80
2022/06/10 09:17:13;;;;;;;;;;;;;;;;;;5104924;28;19922;-80
2022/06/10 09:19:48;;;;;;;;;;;;;;;;;;5105629;28;19915;-80
2022/06/10 09:22:16;;;;;;;;;;;;;;;;;;5076365;28;19916;-80
2022/06/10 09:25:00;;;;;;;;;;;;;;;;;;5100842;28;19924;-80
2022/06/10 09:27:30;;;;;;;;;;;;;;;;;;5101665;28;20297;-79
2022/06/10 09:29:57;;;;;;;;;;;;;;;;;;5066916;28;19923;-79
2022/06/10 09:32:42;;;;;;;;;;;;;;;;;;5083881;28;19916;-80
2022/06/10 09:35:17;;;;;;;;;;;;;;;;;;5067314;28;20339;-79
2022/06/10 09:37:45;;;;;;;;;;;;;;;;;;5116861;28;20369;-80
2022/06/10 09:40:39;;;;;;;;;;;;;;;;;;5121951;28;19915;-80
2022/06/10 09:43:16;;;;;;;;;;;;;;;;;;5104660;28;19920;-79
2022/06/10 09:46:14;;;;;;;;;;;;;;;;;;5103793;28;19916;-81
2022/06/10 09:48:46;;;;;;;;;;;;;;;;;;5047843;28;20339;-84
2022/06/10 09:51:11;;;;;;;;;;;;;;;;;;5121985;28;19920;-82
2022/06/10 09:53:52;;;;;;;;;;;;;;;;;;5104921;28;19927;-82
2022/06/10 09:56:32;;;;;;;;;;;;;;;;;;5085650;28;19916;-81
2022/06/10 09:59:07;;;;;;;;;;;;;;;;;;5104602;28;19922;-82
2022/06/10 10:01:39;;;;;;;;;;;;;;;;;;5059410;28;19920;-84
2022/06/10 10:04:23;;;;;;;;;;;;;;;;;;5060176;28;19928;-82
2022/06/10 10:07:00;;;;;;;;;;;;;;;;;;5046197;28;19921;-79
2022/06/10 10:09:43;;;;;;;;;;;;;;;;;;5062804;28;19921;-80
2022/06/10 10:12:09;;;;;;;;;;;;;;;;;;5060171;28;19916;-78
2022/06/10 10:14:53;;;;;;;;;;;;;;;;;;5060652;28;19923;-78
2022/06/10 10:17:31;;;;;;;;;;;;;;;;;;5076963;28;19916;-78
2022/06/10 10:20:03;;;;;;;;;;;;;;;;;;5076649;28;19946;-78
2022/06/10 10:22:32;;;;;;;;;;;;;;;;;;5077621;28;20289;-80
2022/06/10 10:24:58;;;;;;;;;;;;;;;;;;5060489;28;19927;-78
2022/06/10 10:27:31;;;;;;;;;;;;;;;;;;5060671;28;20015;-79
2022/06/10 10:30:13;;;;;;;;;;;;;;;;;;5076297;28;19916;-80
2022/06/10 10:32:40;;;;;;;;;;;;;;;;;;5074622;28;19916;-82
2022/06/10 10:35:16;;;;;;;;;;;;;;;;;;5060478;28;19939;-82
2022/06/10 10:37:49;;;;;;;;;;;;;;;;;;5041786;28;19921;-81
2022/06/10 10:40:16;;;;;;;;;;;;;;;;;;5040343;28;20013;-83
2022/06/10 10:42:43;;;;;;;;;;;;;;;;;;5041226;28;19927;-84
2022/06/10 10:45:20;;;;;;;;;;;;;;;;;;5057116;28;19923;-80
2022/06/10 10:47:50;;;;;;;;;;;;;;;;;;5057921;28;19917;-86
2022/06/10 10:50:20;;;;;;;;;;;;;;;;;;5058602;28;19917;-83
2022/06/10 10:52:46;;;;;;;;;;;;;;;;;;5040123;28;19916;-82
2022/06/10 10:55:14;;;;;;;;;;;;;;;;;;5041033;28;19999;-84
2022/06/10 10:57:58;;;;;;;;;;;;;;;;;;5040580;28;19917;-84
2022/06/10 11:00:39;;;;;;;;;;;;;;;;;;5055436;28;20330;-81
2022/06/10 11:03:04;;;;;;;;;;;;;;;;;;5095731;28;19927;-83
2022/06/10 11:05:56;;;;;;;;;;;;;;;;;;5080878;28;19916;-80
2022/06/10 11:08:25;;;;;;;;;;;;;;;;;;5078343;28;19927;-79
2022/06/10 11:11:14;;;;;;;;;;;;;;;;;;5097737;28;19916;-84
2022/06/10 11:13:48;;;;;;;;;;;;;;;;;;5044976;28;19916;-82
2022/06/10 11:16:17;;;;;;;;;;;;;;;;;;5095645;28;20430;-78
2022/06/10 11:18:45;;;;;;;;;;;;;;;;;;5093751;28;19927;-77
2022/06/10 11:21:10;;;;;;;;;;;;;;;;;;5070563;28;19917;-75
2022/06/10 11:23:36;;;;;;;;;;;;;;;;;;5079127;28;20386;-78
2022/06/10 11:26:05;;;;;;;;;;;;;;;;;;5079240;28;20313;-78
2022/06/10 11:28:35;;;;;;;;;;;;;;;;;;5064107;28;20331;-78
2022/06/10 11:31:00;;;;;;;;;;;;;;;;;;5076180;28;19917;-78
2022/06/10 11:33:29;;;;;;;;;;;;;;;;;;5087751;28;20365;-78
2022/06/10 11:36:10;;;;;;;;;;;;;;;;;;5068431;28;19923;-78
2022/06/10 11:38:48;;;;;;;;;;;;;;;;;;5078988;28;19948;-78
2022/06/10 11:41:13;;;;;;;;;;;;;;;;;;5060603;28;19916;-78
2022/06/10 11:43:51;;;;;;;;;;;;;;;;;;5061920;28;20019;-78
2022/06/10 11:46:39;;;;;;;;;;;;;;;;;;5062362;28;19923;-78
2022/06/10 11:49:17;;;;;;;;;;;;;;;;;;5061180;28;20389;-78
2022/06/10 11:51:46;;;;;;;;;;;;;;;;;;5060860;28;20348;-78
2022/06/10 11:54:31;;;;;;;;;;;;;;;;;;5074786;28;19939;-79
2022/06/10 12:00:12;;;;;;;;;;;;;;;;;;5088457;28;20015;-79
2022/06/10 12:02:46;;;;;;;;;;;;;;;;;;5083148;28;19919;-79
2022/06/10 12:05:18;;;;;;;;;;;;;;;;;;5083140;28;20005;-79
2022/06/10 12:08:13;;;;;;;;;;;;;;;;;;5083154;28;19973;-79
2022/06/10 12:11:05;;;;;;;;;;;;;;;;;;5081834;28;19916;-79
2022/06/10 12:13:33;;;;;;;;;;;;;;;;;;5077992;28;19946;-79
2022/06/10 12:15:59;;;;;;;;;;;;;;;;;;5065885;28;19991;-79
2022/06/10 12:18:27;;;;;;;;;;;;;;;;;;5098850;28;19962;-77
2022/06/10 12:21:01;;;;;;;;;;;;;;;;;;5081676;28;19961;-78
2022/06/10 12:23:27;;;;;;;;;;;;;;;;;;5062329;28;19920;-79
2022/06/10 12:26:13;;;;;;;;;;;;;;;;;;5065618;28;19912;-79
2022/06/10 12:28:51;;;;;;;;;;;;;;;;;;5034210;28;19916;-79
2022/06/10 12:31:36;;;;;;;;;;;;;;;;;;5071073;28;20002;-79
2022/06/10 12:34:05;;;;;;;;;;;;;;;;;;5070735;28;19947;-79
2022/06/10 12:36:45;;;;;;;;;;;;;;;;;;5070924;28;19916;-79
2022/06/10 12:39:30;;;;;;;;;;;;;;;;;;5081902;28;19915;-79
2022/06/10 12:42:03;;;;;;;;;;;;;;;;;;5105751;28;19916;-79
2022/06/10 12:44:30;;;;;;;;;;;;;;;;;;5107188;28;19920;-79
2022/06/10 12:47:00;;;;;;;;;;;;;;;;;;5106162;28;19919;-79
2022/06/10 12:49:26;;;;;;;;;;;;;;;;;;5105871;28;19923;-79
2022/06/10 12:52:03;;;;;;;;;;;;;;;;;;5090045;28;19916;-79
2022/06/10 12:54:40;;;;;;;;;;;;;;;;;;5107014;28;19983;-79
2022/06/10 12:57:24;;;;;;;;;;;;;;;;;;5089442;28;19916;-79
2022/06/10 12:59:49;;;;;;;;;;;;;;;;;;5105782;28;19963;-79
2022/06/10 13:02:34;;;;;;;;;;;;;;;;;;5089337;28;19923;-79
2022/06/10 13:05:03;;;;;;;;;;;;;;;;;;5089617;28;19919;-79
2022/06/10 13:07:36;;;;;;;;;;;;;;;;;;5091199;28;19916;-80
2022/06/10 13:10:20;;;;;;;;;;;;;;;;;;5087684;28;19916;-79
2022/06/10 13:12:47;;;;;;;;;;;;;;;;;;5070510;28;20427;-79
2022/06/10 13:15:24;;;;;;;;;;;;;;;;;;5070112;28;20305;-79
2022/06/10 13:18:05;;;;;;;;;;;;;;;;;;5086685;28;19920;-79
2022/06/10 13:20:37;;;;;;;;;;;;;;;;;;5062643;28;19916;-77
2022/06/10 13:23:10;;;;;;;;;;;;;;;;;;5060262;28;20369;-76
2022/06/10 13:25:36;;;;;;;;;;;;;;;;;;5059945;28;19916;-76
2022/06/10 13:28:11;;;;;;;;;;;;;;;;;;5076339;28;19916;-76
2022/06/10 13:30:37;;;;;;;;;;;;;;;;;;5060210;28;19922;-76
2022/06/10 13:33:09;;;;;;;;;;;;;;;;;;5059793;28;19916;-76
2022/06/10 13:35:43;;;;;;;;;;;;;;;;;;5076299;28;19916;-76
2022/06/10 13:38:14;;;;;;;;;;;;;;;;;;5089144;28;19916;-79
2022/06/10 13:40:45;;;;;;;;;;;;;;;;;;5089859;28;19916;-79
2022/06/10 13:43:16;;;;;;;;;;;;;;;;;;5105149;28;19920;-79
2022/06/10 13:45:45;;;;;;;;;;;;;;;;;;5105640;28;19919;-79
2022/06/10 13:48:15;;;;;;;;;;;;;;;;;;5087850;28;19964;-79
2022/06/10 13:51:10;;;;;;;;;;;;;;;;;;5096118;28;19916;-79
2022/06/10 13:53:33;;;;;;;;;;;;;;;;;;5095533;28;19916;-78
2022/06/10 13:56:00;;;;;;;;;;;;;;;;;;5093286;28;19916;-77
2022/06/10 13:58:26;;;;;;;;;;;;;;;;;;5084368;28;19945;-77
2022/06/10 14:00:53;;;;;;;;;;;;;;;;;;5105053;28;19955;-77
2022/06/10 14:03:22;;;;;;;;;;;;;;;;;;5087835;28;19962;-82
2022/06/10 14:05:54;;;;;;;;;;;;;;;;;;5080893;28;20006;-76
2022/06/10 14:08:20;;;;;;;;;;;;;;;;;;5128055;27;19915;-76
2022/06/10 14:10:49;;;;;;;;;;;;;;;;;;5080692;28;19973;-78
2022/06/10 14:13:17;;;;;;;;;;;;;;;;;;5098799;28;19962;-78
2022/06/10 14:15:48;;;;;;;;;;;;;;;;;;5095268;28;19927;-77
2022/06/10 14:18:15;;;;;;;;;;;;;;;;;;5097017;28;19916;-78
2022/06/10 14:20:43;;;;;;;;;;;;;;;;;;5098869;28;19926;-78
2022/06/10 14:23:29;;;;;;;;;;;;;;;;;;5097552;28;19919;-77
2022/06/10 14:26:03;;;;;;;;;;;;;;;;;;5098439;28;20296;-78
2022/06/10 14:28:29;;;;;;;;;;;;;;;;;;5098338;28;19923;-78
2022/06/10 14:30:59;;;;;;;;;;;;;;;;;;5080886;28;20451;-78
2022/06/10 14:33:30;;;;;;;;;;;;;;;;;;5078230;28;20024;-77
2022/06/10 14:36:10;;;;;;;;;;;;;;;;;;5096352;28;20019;-77
2022/06/10 14:38:37;;;;;;;;;;;;;;;;;;5079486;28;19980;-77
2022/06/10 14:41:16;;;;;;;;;;;;;;;;;;5079230;28;19927;-78
2022/06/10 14:44:12;;;;;;;;;;;;;;;;;;5079272;28;19923;-77
2022/06/10 14:46:38;;;;;;;;;;;;;;;;;;5100111;28;19973;-79
2022/06/10 14:49:23;;;;;;;;;;;;;;;;;;5118585;28;19916;-79
2022/06/10 14:51:52;;;;;;;;;;;;;;;;;;5100599;28;19916;-79
2022/06/10 14:54:19;;;;;;;;;;;;;;;;;;5082895;28;20288;-79
2022/06/10 14:56:49;;;;;;;;;;;;;;;;;;5086881;28;19922;-79
2022/06/10 14:59:24;;;;;;;;;;;;;;;;;;5084073;28;19916;-76
2022/06/10 15:01:50;;;;;;;;;;;;;;;;;;5119318;28;20346;-76
2022/06/10 15:04:17;;;;;;;;;;;;;;;;;;5082983;28;19919;-77
2022/06/10 15:06:44;;;;;;;;;;;;;;;;;;5085210;28;19941;-78
2022/06/10 15:09:13;;;;;;;;;;;;;;;;;;5103861;28;20002;-77
2022/06/10 15:11:40;;;;;;;;;;;;;;;;;;5083179;28;19923;-77
2022/06/10 15:14:05;;;;;;;;;;;;;;;;;;5080953;28;19916;-77
2022/06/10 15:16:30;;;;;;;;;;;;;;;;;;5082397;28;20470;-77
2022/06/10 15:18:56;;;;;;;;;;;;;;;;;;5100216;28;19922;-76
2022/06/10 15:21:25;;;;;;;;;;;;;;;;;;5099452;28;19959;-77
2022/06/10 15:23:51;;;;;;;;;;;;;;;;;;5071620;28;19924;-77
2022/06/10 15:26:21;;;;;;;;;;;;;;;;;;5078607;28;19938;-77
2022/06/10 15:28:46;;;;;;;;;;;;;;;;;;5098068;28;20308;-80
2022/06/10 15:31:16;;;;;;;;;;;;;;;;;;5088544;28;19959;-81
2022/06/10 15:33:43;;;;;;;;;;;;;;;;;;5086726;28;20014;-78
2022/06/10 15:41:44;;;;;;;;;;;;;;;;;;5100545;28;20015;-78
2022/06/10 15:44:25;;;;;;;;;;;;;;;;;;5099040;28;19967;-79
2022/06/10 15:46:51;;;;;;;;;;;;;;;;;;5102325;28;19924;-79
2022/06/10 15:49:18;;;;;;;;;;;;;;;;;;5085088;28;19923;-78
2022/06/10 15:51:45;;;;;;;;;;;;;;;;;;5101669;28;19916;-79
2022/06/10 15:54:29;;;;;;;;;;;;;;;;;;5100747;28;20379;-79
2022/06/10 15:57:13;;;;;;;;;;;;;;;;;;5088998;28;19919;-78
2022/06/10 15:59:52;;;;;;;;;;;;;;;;;;5126263;28;19926;-79
2022/06/10 16:02:22;;;;;;;;;;;;;;;;;;5123157;28;20429;-79
2022/06/10 16:04:49;;;;;;;;;;;;;;;;;;5128666;28;20350;-79
2022/06/10 16:07:15;;;;;;;;;;;;;;;;;;5127869;28;19916;-79
2022/06/10 16:09:40;;;;;;;;;;;;;;;;;;5111790;28;19920;-79
2022/06/10 16:14:51;;;;;;;;;;;;;;;;;;5109743;28;20296;-79
2022/06/10 16:17:21;;;;;;;;;;;;;;;;;;5128443;28;19922;-79
2022/06/10 16:19:49;;;;;;;;;;;;;;;;;;5094858;28;20356;-79
2022/06/10 16:22:16;;;;;;;;;;;;;;;;;;5094027;28;19920;-79
2022/06/10 16:24:42;;;;;;;;;;;;;;;;;;5112623;28;19927;-79
2022/06/10 16:27:09;;;;;;;;;;;;;;;;;;5111550;28;20288;-79
2022/06/10 16:29:35;;;;;;;;;;;;;;;;;;5093702;28;19916;-79
2022/06/10 16:32:03;;;;;;;;;;;;;;;;;;5109497;28;20395;-79
2022/06/10 16:34:29;;;;;;;;;;;;;;;;;;5094123;28;19923;-79
2022/06/10 16:36:55;;;;;;;;;;;;;;;;;;5092847;28;19916;-79
2022/06/10 16:39:20;;;;;;;;;;;;;;;;;;5110192;28;19916;-79
2022/06/10 16:41:48;;;;;;;;;;;;;;;;;;5093040;28;19923;-79
2022/06/10 16:44:13;;;;;;;;;;;;;;;;;;5109500;28;19923;-79
2022/06/10 16:46:40;;;;;;;;;;;;;;;;;;5110254;28;19983;-79
2022/06/10 16:49:06;;;;;;;;;;;;;;;;;;5110135;28;19922;-79
2022/06/10 16:51:33;;;;;;;;;;;;;;;;;;5108968;28;20116;-79
2022/06/10 16:54:01;;;;;;;;;;;;;;;;;;5116343;28;19916;-79
2022/06/10 16:56:34;;;;;;;;;;;;;;;;;;5072364;28;19995;-79
2022/06/10 16:59:03;;;;;;;;;;;;;;;;;;5089346;28;19970;-79
2022/06/10 17:01:29;;;;;;;;;;;;;;;;;;5089048;28;19920;-79
2022/06/10 17:03:55;;;;;;;;;;;;;;;;;;5088093;28;20361;-79
2022/06/10 17:06:21;;;;;;;;;;;;;;;;;;5071878;28;19916;-79
2022/06/10 17:08:49;;;;;;;;;;;;;;;;;;5072958;28;19916;-79
2022/06/10 17:11:17;;;;;;;;;;;;;;;;;;5107688;28;19916;-79
2022/06/10 17:13:45;;;;;;;;;;;;;;;;;;5072486;28;19922;-79
2022/06/10 17:16:22;;;;;;;;;;;;;;;;;;5089440;28;19907;-79
2022/06/10 17:18:49;;;;;;;;;;;;;;;;;;5071217;28;19916;-79
2022/06/10 17:21:16;;;;;;;;;;;;;;;;;;5069854;28;19937;-79
2022/06/10 17:23:42;;;;;;;;;;;;;;;;;;5088590;28;19927;-79
2022/06/10 17:26:13;;;;;;;;;;;;;;;;;;5107668;28;19912;-79
2022/06/10 17:28:40;;;;;;;;;;;;;;;;;;5088638;28;19923;-79
2022/06/10 17:31:09;;;;;;;;;;;;;;;;;;5089528;28;19962;-79
2022/06/10 17:33:38;;;;;;;;;;;;;;;;;;5090192;28;19923;-79